createdAt,value
2018-02-21T00:01:20.244Z,4.97
2018-02-21T00:03:47.798Z,4.70
2018-02-21T00:06:16.313Z,3.72
2018-02-21T00:08:43.885Z,4.47
2018-02-21T00:11:11.434Z,4.68
2018-02-21T00:13:39.496Z,5.05
2018-02-21T00:16:07.793Z,5.65
2018-02-21T00:18:35.358Z,3.55
2018-02-21T00:21:02.938Z,3.30
2018-02-21T00:23:30.495Z,4.45
2018-02-21T00:25:58.046Z,2.75
2018-02-21T00:28:25.867Z,4.97
2018-02-21T00:30:54.175Z,4.37
2018-02-21T00:33:21.734Z,3.72
2018-02-21T00:35:49.349Z,3.78
2018-02-21T00:38:17.667Z,4.68
2018-02-21T00:40:45.821Z,4.47
2018-02-21T00:43:13.641Z,4.80
2018-02-21T00:45:41.198Z,3.47
2018-02-21T00:48:08.748Z,3.50
2018-02-21T00:50:37.238Z,3.90
2018-02-21T00:53:05.202Z,4.53
2018-02-21T00:55:32.748Z,4.75
2018-02-21T00:58:00.386Z,6.07
2018-02-21T01:00:27.962Z,5.05
2018-02-21T01:02:55.722Z,5.05
2018-02-21T01:05:23.862Z,6.10
2018-02-21T01:07:52.199Z,3.92
2018-02-21T01:10:19.744Z,5.57
2018-02-21T01:12:47.629Z,5.03
2018-02-21T01:15:15.173Z,3.83
2018-02-21T01:17:43.366Z,4.95
2018-02-21T01:20:11.638Z,5.87
2018-02-21T01:22:39.187Z,4.32
2018-02-21T01:25:06.736Z,4.65
2018-02-21T01:27:34.426Z,4.68
2018-02-21T01:30:02.206Z,5.60
2018-02-21T01:32:29.902Z,3.25
2018-02-21T01:34:57.850Z,5.95
2018-02-21T01:37:26.178Z,5.57
2018-02-21T01:39:53.762Z,4.50
2018-02-21T01:42:21.481Z,4.60
2018-02-21T01:44:49.256Z,3.28
2018-02-21T01:47:16.807Z,4.40
2018-02-21T01:49:44.605Z,4.97
2018-02-21T01:52:12.234Z,4.15
2018-02-21T01:54:39.797Z,4.50
2018-02-21T01:57:07.907Z,4.87
2018-02-21T01:59:35.467Z,4.60
2018-02-21T02:02:03.026Z,4.75
2018-02-21T02:04:30.818Z,4.20
2018-02-21T02:06:59.132Z,3.22
2018-02-21T02:09:26.685Z,4.82
2018-02-21T02:11:54.994Z,3.85
2018-02-21T02:14:22.550Z,4.03
2018-02-21T02:16:50.286Z,4.80
2018-02-21T02:19:17.903Z,4.90
2018-02-21T02:21:45.455Z,5.50
2018-02-21T02:24:13.100Z,3.47
2018-02-21T02:26:41.171Z,3.17
2018-02-21T02:29:08.735Z,4.28
2018-02-21T02:31:37.796Z,4.50
2018-02-21T02:34:05.503Z,3.85
2018-02-21T02:36:33.228Z,4.55
2018-02-21T02:39:12.809Z,5.12
2018-02-21T02:41:40.622Z,4.07
2018-02-21T02:44:08.184Z,4.72
2018-02-21T02:46:36.255Z,5.20
2018-02-21T02:49:03.876Z,5.12
2018-02-21T02:51:32.209Z,5.75
2018-02-21T02:54:00.000Z,3.80
2018-02-21T02:56:27.553Z,5.60
2018-02-21T02:58:55.113Z,3.30
2018-02-21T03:01:22.978Z,4.20
2018-02-21T03:03:50.567Z,4.55
2018-02-21T03:06:18.128Z,5.87
2018-02-21T03:08:46.786Z,5.50
2018-02-21T03:11:14.382Z,4.00
2018-02-21T03:13:41.931Z,5.18
2018-02-21T03:16:10.422Z,4.00
2018-02-21T03:18:38.742Z,6.30
2018-02-21T03:21:06.289Z,4.68
2018-02-21T03:23:34.594Z,5.70
2018-02-21T03:26:02.229Z,3.55
2018-02-21T03:28:29.779Z,3.72
2018-02-21T03:30:57.647Z,5.82
2018-02-21T03:33:25.205Z,3.15
2018-02-21T03:35:52.759Z,5.45
2018-02-21T03:38:20.770Z,4.43
2018-02-21T03:40:48.327Z,2.90
2018-02-21T03:43:15.882Z,4.28
2018-02-21T03:45:43.706Z,4.70
2018-02-21T03:48:11.521Z,4.75
2018-02-21T03:50:39.093Z,4.72
2018-02-21T03:53:06.965Z,4.18
2018-02-21T03:55:34.514Z,4.40
2018-02-21T03:58:02.068Z,6.03
2018-02-21T04:00:29.674Z,4.32
2018-02-21T04:02:57.227Z,4.60
2018-02-21T04:05:25.542Z,5.25
2018-02-21T04:07:53.326Z,4.85
2018-02-21T04:10:20.879Z,4.60
2018-02-21T04:12:48.744Z,4.72
2018-02-21T04:15:16.516Z,4.82
2018-02-21T04:17:44.066Z,3.92
2018-02-21T04:20:11.621Z,5.45
2018-02-21T04:22:39.294Z,5.37
2018-02-21T04:25:07.531Z,3.50
2018-02-21T04:27:35.403Z,6.15
2018-02-21T04:30:03.285Z,2.78
2018-02-21T04:32:30.834Z,4.53
2018-02-21T04:34:58.398Z,4.80
2018-02-21T04:37:26.369Z,3.78
2018-02-21T04:39:54.046Z,5.80
2018-02-21T04:42:21.602Z,3.87
2018-02-21T04:44:49.956Z,5.95
2018-02-21T04:47:17.519Z,4.20
2018-02-21T04:49:45.068Z,6.25
2018-02-21T04:52:13.087Z,5.40
2018-02-21T04:54:40.657Z,5.25
2018-02-21T04:57:13.854Z,3.28
2018-02-21T04:59:54.799Z,6.00
2018-02-21T05:02:22.556Z,4.82
2018-02-21T05:04:50.439Z,4.03
2018-02-21T05:07:18.033Z,5.20
2018-02-21T05:09:45.969Z,4.03
2018-02-21T05:12:13.638Z,3.95
2018-02-21T05:14:41.257Z,6.07
2018-02-21T05:17:08.802Z,3.22
2018-02-21T05:19:36.614Z,5.12
2018-02-21T05:22:04.163Z,5.12
2018-02-21T05:24:31.722Z,3.83
2018-02-21T05:26:59.346Z,4.75
2018-02-21T05:29:26.901Z,5.50
2018-02-21T05:31:54.454Z,4.28
2018-02-21T05:34:22.171Z,6.78
2018-02-21T05:36:49.723Z,4.55
2018-02-21T05:39:18.609Z,5.37
2018-02-21T05:41:46.156Z,4.60
2018-02-21T05:44:13.814Z,4.07
2018-02-21T05:46:41.607Z,6.20
2018-02-21T05:49:09.160Z,5.60
2018-02-21T05:51:37.924Z,4.78
2018-02-21T05:54:07.160Z,5.40
2018-02-21T05:56:34.709Z,5.43
2018-02-21T05:59:02.265Z,3.92
2018-02-21T06:01:30.159Z,5.47
2018-02-21T06:03:57.974Z,6.00
2018-02-21T06:06:25.543Z,4.20
2018-02-21T06:08:57.942Z,4.50
2018-02-21T06:11:25.491Z,5.62
2018-02-21T06:13:53.068Z,6.05
2018-02-21T06:16:21.034Z,4.57
2018-02-21T06:18:48.578Z,3.80
2018-02-21T06:21:17.475Z,5.87
2018-02-21T06:23:45.925Z,3.60
2018-02-21T06:26:13.480Z,6.65
2018-02-21T06:28:41.033Z,5.60
2018-02-21T06:31:09.350Z,4.60
2018-02-21T06:33:38.718Z,6.53
2018-02-21T06:36:06.396Z,3.03
2018-02-21T06:38:34.842Z,4.43
2018-02-21T06:41:02.390Z,4.35
2018-02-21T06:43:30.710Z,3.55
2018-02-21T06:46:01.571Z,5.82
2018-02-21T06:48:29.124Z,3.75
2018-02-21T06:50:56.724Z,5.25
2018-02-21T06:53:26.537Z,5.30
2018-02-21T06:55:54.093Z,5.87
2018-02-21T06:58:22.654Z,5.53
2018-02-21T07:00:53.271Z,6.78
2018-02-21T07:03:20.826Z,6.80
2018-02-21T07:05:48.473Z,6.10
2018-02-21T07:08:18.071Z,5.75
2018-02-21T07:10:45.622Z,3.90
2018-02-21T07:13:13.192Z,4.35
2018-02-21T07:15:42.066Z,5.78
2018-02-21T07:18:09.629Z,7.45
2018-02-21T07:20:37.617Z,3.60
2018-02-21T07:23:07.162Z,11.45
2018-02-21T07:25:34.718Z,10.50
2018-02-21T07:28:02.269Z,5.57
2018-02-21T07:30:30.008Z,5.05
2018-02-21T07:32:57.564Z,4.45
2018-02-21T07:35:25.113Z,4.70
2018-02-21T07:37:53.114Z,4.32
2018-02-21T07:40:20.663Z,5.22
2018-02-21T07:42:48.362Z,7.50
2018-02-21T07:45:16.513Z,7.68
2018-02-21T07:47:44.077Z,7.30
2018-02-21T07:50:12.423Z,8.02
2018-02-21T07:52:40.122Z,6.82
2018-02-21T07:55:07.666Z,6.60
2018-02-21T07:57:35.225Z,10.75
2018-02-21T08:00:02.830Z,12.65
2018-02-21T08:02:30.381Z,9.05
2018-02-21T08:04:58.812Z,14.35
2018-02-21T08:07:26.689Z,10.48
2018-02-21T08:09:54.250Z,10.90
2018-02-21T08:12:21.799Z,5.68
2018-02-21T08:14:49.397Z,6.18
2018-02-21T08:17:21.434Z,6.45
2018-02-21T08:19:49.009Z,6.00
2018-02-21T08:22:19.857Z,3.60
2018-02-21T08:24:48.183Z,3.97
2018-02-21T08:27:16.556Z,6.53
2018-02-21T08:29:51.833Z,14.18
2018-02-21T08:32:19.388Z,8.73
2018-02-21T08:34:46.938Z,6.78
2018-02-21T08:37:14.534Z,6.18
2018-02-21T08:39:42.089Z,4.87
2018-02-21T08:42:18.591Z,4.20
2018-02-21T08:44:46.149Z,6.30
2018-02-21T08:47:13.730Z,5.65
2018-02-21T08:49:41.488Z,5.53
2018-02-21T08:52:09.792Z,4.95
2018-02-21T08:54:37.346Z,6.43
2018-02-21T08:57:05.590Z,5.90
2018-02-21T08:59:33.137Z,4.97
2018-02-21T09:02:02.426Z,5.20
2018-02-21T09:04:33.263Z,5.15
2018-02-21T09:07:02.370Z,4.25
2018-02-21T09:09:30.702Z,4.65
2018-02-21T09:12:01.331Z,5.53
2018-02-21T09:14:28.877Z,4.40
2018-02-21T09:16:56.430Z,4.20
2018-02-21T09:19:25.962Z,5.62
2018-02-21T09:21:53.514Z,5.30
2018-02-21T09:24:21.070Z,5.28
2018-02-21T09:26:51.394Z,5.45
2018-02-21T09:29:18.955Z,4.55
2018-02-21T09:31:50.177Z,5.47
2018-02-21T09:34:19.910Z,4.95
2018-02-21T09:36:48.814Z,4.65
2018-02-21T09:39:16.790Z,4.55
2018-02-21T09:41:48.097Z,3.95
2018-02-21T09:44:15.649Z,4.62
2018-02-21T09:46:43.229Z,3.90
2018-02-21T09:49:12.722Z,5.18
2018-02-21T09:51:40.282Z,4.22
2018-02-21T09:54:07.840Z,5.03
2018-02-21T09:56:35.633Z,3.85
2018-02-21T09:59:03.341Z,3.12
2018-02-21T10:01:30.917Z,4.12
2018-02-21T10:03:58.826Z,4.82
2018-02-21T10:06:26.457Z,3.85
2018-02-21T10:08:54.009Z,4.22
2018-02-21T10:11:21.697Z,5.53
2018-02-21T10:13:49.253Z,3.58
2018-02-21T10:16:16.799Z,3.60
2018-02-21T10:18:44.597Z,3.10
2018-02-21T10:21:12.950Z,2.10
2018-02-21T10:23:40.501Z,4.30
2018-02-21T10:26:08.421Z,2.75
2018-02-21T10:28:36.738Z,5.05
2018-02-21T10:31:04.282Z,2.75
2018-02-21T10:33:31.989Z,3.45
2018-02-21T10:35:59.541Z,2.85
2018-02-21T10:38:27.274Z,2.62
2018-02-21T10:40:54.842Z,2.95
2018-02-21T10:43:22.389Z,2.58
2018-02-21T10:45:49.932Z,2.42
2018-02-21T10:48:18.583Z,2.85
2018-02-21T10:50:47.970Z,3.72
2018-02-21T10:53:17.346Z,2.97
2018-02-21T10:55:45.450Z,3.28
2018-02-21T10:58:13.392Z,4.40
2018-02-21T11:00:47.992Z,3.70
2018-02-21T11:03:20.209Z,3.30
2018-02-21T11:05:47.802Z,3.50
2018-02-21T11:08:19.325Z,2.87
2018-02-21T11:10:46.876Z,2.45
2018-02-21T11:13:14.433Z,2.67
2018-02-21T11:15:42.722Z,2.58
2018-02-21T11:18:10.283Z,2.17
2018-02-21T11:20:37.865Z,2.42
2018-02-21T11:23:06.236Z,2.78
2018-02-21T11:25:34.554Z,1.90
2018-02-21T11:28:02.118Z,2.45
2018-02-21T11:30:29.689Z,2.50
2018-02-21T11:32:57.242Z,3.33
2018-02-21T11:35:24.945Z,6.97
2018-02-21T11:37:52.981Z,3.08
2018-02-21T11:40:21.251Z,2.97
2018-02-21T11:42:51.937Z,2.72
2018-02-21T11:45:20.368Z,3.47
2018-02-21T11:47:51.273Z,3.42
2018-02-21T11:50:20.064Z,2.83
2018-02-21T11:52:47.615Z,3.58
2018-02-21T11:55:15.157Z,2.40
2018-02-21T11:57:42.796Z,2.70
2018-02-21T12:00:10.347Z,3.42
2018-02-21T12:02:38.087Z,3.72
2018-02-21T12:05:05.700Z,3.20
2018-02-21T12:07:34.018Z,3.15
2018-02-21T12:10:01.586Z,2.83
2018-02-21T12:12:29.399Z,3.03
2018-02-21T12:14:57.224Z,2.85
2018-02-21T12:17:24.794Z,2.65
2018-02-21T12:19:52.782Z,2.70
2018-02-21T12:22:20.344Z,2.58
2018-02-21T12:24:47.894Z,2.83
2018-02-21T12:27:15.508Z,2.45
2018-02-21T12:29:43.062Z,2.00
2018-02-21T12:32:15.014Z,2.25
2018-02-21T12:34:43.675Z,1.83
2018-02-21T12:37:11.501Z,2.28
2018-02-21T12:39:39.067Z,3.50
2018-02-21T12:42:06.660Z,2.72
2018-02-21T12:44:34.974Z,2.75
2018-02-21T12:47:02.522Z,2.92
2018-02-21T12:49:30.365Z,2.62
2018-02-21T12:51:57.908Z,2.50
2018-02-21T12:54:25.454Z,3.78
2018-02-21T12:56:53.241Z,2.55
2018-02-21T12:59:20.900Z,2.90
2018-02-21T13:01:48.440Z,2.30
2018-02-21T13:04:21.059Z,2.80
2018-02-21T13:06:49.378Z,2.55
2018-02-21T13:09:16.931Z,2.70
2018-02-21T13:11:44.753Z,2.85
2018-02-21T13:14:16.703Z,2.67
2018-02-21T13:16:44.254Z,2.78
2018-02-21T13:19:11.793Z,2.80
2018-02-21T13:21:41.127Z,2.85
2018-02-21T13:24:08.687Z,2.90
2018-02-21T13:26:37.014Z,2.05
2018-02-21T13:29:06.261Z,2.92
2018-02-21T13:31:33.809Z,2.70
2018-02-21T13:34:01.353Z,2.10
2018-02-21T13:36:29.134Z,2.40
2018-02-21T13:38:56.688Z,2.00
2018-02-21T13:41:24.259Z,2.30
2018-02-21T13:43:57.261Z,4.68
2018-02-21T13:46:26.971Z,2.65
2018-02-21T13:48:55.283Z,3.12
2018-02-21T13:51:23.415Z,3.10
2018-02-21T13:53:50.954Z,2.28
2018-02-21T13:56:18.517Z,3.10
2018-02-21T13:58:46.125Z,2.80
2018-02-21T14:01:13.684Z,2.50
2018-02-21T14:03:41.249Z,2.60
2018-02-21T14:06:09.073Z,2.50
2018-02-21T14:08:36.631Z,2.50
2018-02-21T14:11:04.186Z,3.95
2018-02-21T14:13:33.158Z,4.25
2018-02-21T14:16:00.708Z,2.97
2018-02-21T14:18:28.273Z,2.80
2018-02-21T14:20:57.972Z,2.92
2018-02-21T14:23:25.525Z,3.80
2018-02-21T14:25:56.593Z,3.12
2018-02-21T14:28:25.370Z,2.42
2018-02-21T14:30:52.913Z,4.70
2018-02-21T14:33:20.522Z,3.00
2018-02-21T14:35:48.096Z,4.10
2018-02-21T14:38:15.886Z,1.95
2018-02-21T14:40:44.261Z,2.28
2018-02-21T14:43:11.810Z,2.20
2018-02-21T14:45:40.128Z,2.35
2018-02-21T14:48:07.854Z,3.37
2018-02-21T14:50:35.411Z,3.10
2018-02-21T14:53:05.906Z,3.45
2018-02-21T14:55:37.265Z,2.75
2018-02-21T14:58:04.837Z,2.95
2018-02-21T15:00:32.790Z,2.53
2018-02-21T15:03:00.614Z,2.60
2018-02-21T15:05:28.391Z,2.67
2018-02-21T15:07:56.127Z,6.68
2018-02-21T15:10:23.680Z,3.10
2018-02-21T15:12:52.006Z,2.65
2018-02-21T15:15:20.013Z,1.52
2018-02-21T15:17:48.350Z,2.50
2018-02-21T15:20:15.899Z,1.92
2018-02-21T15:22:43.789Z,2.40
2018-02-21T15:25:11.338Z,2.75
2018-02-21T15:27:39.178Z,2.78
2018-02-21T15:30:06.980Z,2.55
2018-02-21T15:32:34.576Z,2.70
2018-02-21T15:35:02.125Z,3.22
2018-02-21T15:37:30.506Z,2.50
2018-02-21T15:39:58.235Z,3.42
2018-02-21T15:42:25.791Z,3.12
2018-02-21T15:44:53.342Z,2.90
2018-02-21T15:47:20.892Z,2.15
2018-02-21T15:49:48.651Z,2.20
2018-02-21T15:52:16.555Z,2.05
2018-02-21T15:54:51.040Z,2.10
2018-02-21T15:57:18.606Z,2.78
2018-02-21T15:59:46.441Z,1.98
2018-02-21T16:02:13.993Z,2.95
2018-02-21T16:04:42.414Z,2.72
2018-02-21T16:07:10.179Z,2.47
2018-02-21T16:09:37.744Z,2.30
2018-02-21T16:12:05.304Z,2.67
2018-02-21T16:14:35.349Z,1.92
2018-02-21T16:17:03.109Z,2.65
2018-02-21T16:19:32.173Z,2.50
2018-02-21T16:21:59.965Z,2.60
2018-02-21T16:24:27.726Z,2.70
2018-02-21T16:26:55.288Z,2.25
2018-02-21T16:29:22.937Z,3.40
2018-02-21T16:31:50.495Z,3.12
2018-02-21T16:34:18.078Z,2.65
2018-02-21T16:36:45.706Z,3.08
2018-02-21T16:39:13.261Z,2.60
2018-02-21T16:41:40.818Z,2.15
2018-02-21T16:44:12.649Z,3.08
2018-02-21T16:46:41.026Z,2.50
2018-02-21T16:49:10.762Z,4.82
2018-02-21T16:51:41.341Z,4.87
2018-02-21T16:54:14.601Z,5.50
2018-02-21T16:56:44.452Z,3.05
2018-02-21T16:59:15.262Z,3.08
2018-02-21T17:01:42.813Z,3.08
2018-02-21T17:04:10.669Z,3.25
2018-02-21T17:06:38.342Z,3.33
2018-02-21T17:09:05.900Z,3.50
2018-02-21T17:11:33.693Z,3.70
2018-02-21T17:14:01.246Z,4.30
2018-02-21T17:16:29.558Z,4.35
2018-02-21T17:18:58.108Z,4.53
2018-02-21T17:21:25.670Z,4.12
2018-02-21T17:23:54.738Z,3.25
2018-02-21T17:26:22.366Z,6.25
2018-02-21T17:28:49.926Z,3.35
2018-02-21T17:31:17.477Z,5.72
2018-02-21T17:33:45.076Z,4.22
2018-02-21T17:36:17.821Z,4.78
2018-02-21T17:38:45.366Z,3.28
2018-02-21T17:41:20.673Z,3.87
2018-02-21T17:43:50.048Z,3.75
2018-02-21T17:46:17.617Z,2.70
2018-02-21T17:48:45.221Z,3.65
2018-02-21T17:51:13.577Z,3.85
2018-02-21T17:53:41.172Z,3.70
2018-02-21T17:56:09.633Z,3.67
2018-02-21T17:58:37.242Z,4.50
2018-02-21T18:01:04.802Z,3.47
2018-02-21T18:03:32.655Z,6.00
2018-02-21T18:06:00.207Z,6.18
2018-02-21T18:08:27.764Z,8.10
2018-02-21T18:10:55.593Z,5.62
2018-02-21T18:13:23.152Z,6.15
2018-02-21T18:15:51.473Z,4.45
2018-02-21T18:18:19.193Z,2.78
2018-02-21T18:20:46.854Z,2.85
2018-02-21T18:23:14.405Z,3.33
2018-02-21T18:28:14.616Z,3.60
2018-02-21T18:30:42.171Z,3.20
2018-02-21T18:33:10.062Z,3.17
2018-02-21T18:35:37.871Z,4.20
2018-02-21T18:38:05.422Z,4.82
2018-02-21T18:40:33.767Z,4.03
2018-02-21T18:43:01.370Z,3.65
2018-02-21T18:45:29.174Z,3.67
2018-02-21T18:47:57.092Z,4.53
2018-02-21T18:50:25.521Z,4.30
2018-02-21T18:52:53.074Z,5.40
2018-02-21T18:55:20.754Z,3.70
2018-02-21T18:57:48.510Z,3.28
2018-02-21T19:00:16.066Z,5.43
2018-02-21T19:02:43.979Z,4.90
2018-02-21T19:05:11.530Z,3.80
2018-02-21T19:07:41.907Z,12.10
2018-02-21T19:10:09.922Z,13.35
2018-02-21T19:12:37.506Z,5.43
2018-02-21T19:15:09.965Z,3.40
2018-02-21T19:17:39.227Z,5.15
2018-02-21T19:20:07.120Z,5.35
2018-02-21T19:22:34.819Z,4.80
2018-02-21T19:25:06.327Z,6.53
2018-02-21T19:27:33.883Z,5.43
2018-02-21T19:30:01.627Z,4.35
2018-02-21T19:32:29.523Z,3.15
2018-02-21T19:34:57.084Z,4.20
2018-02-21T19:37:24.660Z,2.70
2018-02-21T19:39:52.515Z,3.37
2018-02-21T19:42:20.234Z,2.90
2018-02-21T19:44:47.798Z,2.47
2018-02-21T19:47:15.704Z,3.35
2018-02-21T19:49:43.276Z,4.20
2018-02-21T19:52:11.607Z,4.32
2018-02-21T19:54:39.532Z,4.75
2018-02-21T19:57:07.960Z,3.97
2018-02-21T19:59:36.356Z,3.72
2018-02-21T20:02:03.969Z,5.28
2018-02-21T20:04:31.538Z,4.53
2018-02-21T20:06:59.112Z,3.12
2018-02-21T20:09:26.913Z,5.15
2018-02-21T20:11:54.472Z,3.58
2018-02-21T20:14:23.234Z,4.60
2018-02-21T20:16:54.332Z,4.03
2018-02-21T20:19:25.088Z,5.32
2018-02-21T20:21:52.641Z,7.05
2018-02-21T20:24:21.862Z,17.20
2018-02-21T20:26:49.428Z,27.05
2018-02-21T20:29:16.991Z,21.92
2018-02-21T20:31:54.215Z,10.15
2018-02-21T20:34:21.767Z,4.82
2018-02-21T20:36:49.323Z,8.38
2018-02-21T20:39:17.022Z,11.85
2018-02-21T20:41:44.578Z,8.00
2018-02-21T20:44:13.182Z,6.62
2018-02-21T20:49:17.377Z,4.05
2018-02-21T20:51:44.930Z,4.22
2018-02-21T20:54:14.097Z,3.53
2018-02-21T20:56:42.813Z,5.75
2018-02-21T20:59:13.022Z,4.60
2018-02-21T21:01:41.583Z,3.85
2018-02-21T21:04:09.481Z,3.80
2018-02-21T21:06:37.139Z,4.80
2018-02-21T21:09:04.720Z,3.87
2018-02-21T21:11:32.336Z,3.72
2018-02-21T21:13:59.887Z,4.37
2018-02-21T21:16:27.450Z,5.00
2018-02-21T21:18:55.447Z,4.12
2018-02-21T21:21:23.006Z,3.87
2018-02-21T21:23:50.577Z,4.30
2018-02-21T21:26:18.421Z,3.55
2018-02-21T21:28:45.970Z,3.40
2018-02-21T21:31:13.752Z,3.17
2018-02-21T21:33:41.621Z,4.18
2018-02-21T21:36:10.158Z,4.97
2018-02-21T21:38:37.705Z,4.10
2018-02-21T21:41:05.634Z,4.82
2018-02-21T21:43:33.465Z,4.97
2018-02-21T21:46:01.010Z,4.57
2018-02-21T21:48:28.880Z,4.72
2018-02-21T21:50:56.431Z,4.75
2018-02-21T21:53:23.991Z,5.72
2018-02-21T21:55:51.810Z,3.60
2018-02-21T21:58:19.361Z,2.80
2018-02-21T22:00:46.972Z,3.12
2018-02-21T22:03:15.501Z,3.75
2018-02-21T22:05:43.051Z,5.18
2018-02-21T22:08:10.890Z,5.47
2018-02-21T22:10:38.769Z,4.07
2018-02-21T22:13:06.330Z,3.87
2018-02-21T22:15:33.890Z,3.25
2018-02-21T22:18:01.824Z,4.78
2018-02-21T22:20:29.426Z,3.15
2018-02-21T22:22:56.985Z,2.92
2018-02-21T22:25:24.983Z,3.50
2018-02-21T22:27:52.541Z,2.65
2018-02-21T22:30:20.099Z,4.10
2018-02-21T22:32:47.727Z,2.72
2018-02-21T22:35:15.279Z,3.33
2018-02-21T22:37:42.942Z,5.03
2018-02-21T22:40:10.739Z,4.75
2018-02-21T22:42:38.308Z,3.78
2018-02-21T22:45:05.856Z,4.85
2018-02-21T22:47:33.752Z,2.78
2018-02-21T22:50:02.080Z,4.03
2018-02-21T22:52:29.633Z,2.60
2018-02-21T22:54:57.229Z,4.18
2018-02-21T22:57:25.168Z,2.47
2018-02-21T22:59:52.717Z,2.37
2018-02-21T23:02:20.305Z,4.35
2018-02-21T23:04:47.854Z,2.30
2018-02-21T23:07:15.400Z,3.65
2018-02-21T23:09:43.155Z,4.15
2018-02-21T23:12:10.712Z,4.22
2018-02-21T23:14:38.283Z,3.45
2018-02-21T23:17:06.534Z,3.03
2018-02-21T23:19:34.092Z,5.85
2018-02-21T23:22:02.881Z,3.30
2018-02-21T23:24:32.521Z,2.97
2018-02-21T23:27:00.086Z,4.30
2018-02-21T23:29:27.637Z,4.30
2018-02-21T23:31:56.758Z,3.50
2018-02-21T23:34:24.791Z,4.70
2018-02-21T23:36:52.345Z,3.45
2018-02-21T23:39:19.989Z,4.68
2018-02-21T23:41:48.303Z,3.85
2018-02-21T23:44:15.860Z,3.62
2018-02-21T23:46:43.958Z,4.93
2018-02-21T23:49:11.511Z,8.00
2018-02-21T23:51:39.070Z,11.88
2018-02-21T23:54:06.678Z,5.07
2018-02-21T23:56:34.237Z,4.32
2018-02-21T23:59:02.637Z,3.33
